createdAt,value
2017-06-03T00:01:09.507Z,14.23
2017-06-03T00:03:35.731Z,13.23
2017-06-03T00:06:02.679Z,12.87
2017-06-03T00:08:28.901Z,16.50
2017-06-03T00:10:55.876Z,14.17
2017-06-03T00:13:22.086Z,13.80
2017-06-03T00:15:48.330Z,14.67
2017-06-03T00:18:14.546Z,13.77
2017-06-03T00:20:40.789Z,14.43
2017-06-03T00:23:06.999Z,13.63
2017-06-03T00:25:33.241Z,13.63
2017-06-03T00:27:59.465Z,14.80
2017-06-03T00:30:25.699Z,14.07
2017-06-03T00:32:51.919Z,13.80
2017-06-03T00:35:18.160Z,13.67
2017-06-03T00:37:44.373Z,14.00
2017-06-03T00:40:10.641Z,12.50
2017-06-03T00:42:36.850Z,12.33
2017-06-03T00:45:03.098Z,13.23
2017-06-03T00:47:29.325Z,12.60
2017-06-03T00:49:55.566Z,12.30
2017-06-03T00:52:21.768Z,13.60
2017-06-03T00:54:47.995Z,15.30
2017-06-03T00:57:14.208Z,13.90
2017-06-03T00:59:40.426Z,14.50
2017-06-03T01:02:06.653Z,14.80
2017-06-03T01:04:32.866Z,15.13
2017-06-03T01:06:59.843Z,14.77
2017-06-03T01:09:26.068Z,14.20
2017-06-03T01:11:52.307Z,14.33
2017-06-03T01:14:18.509Z,14.50
2017-06-03T01:16:44.728Z,13.63
2017-06-03T01:19:10.924Z,14.37
2017-06-03T01:21:37.147Z,14.17
2017-06-03T01:24:03.345Z,14.33
2017-06-03T01:26:29.561Z,15.43
2017-06-03T01:28:55.770Z,15.67
2017-06-03T01:31:22.019Z,15.67
2017-06-03T01:33:48.237Z,14.50
2017-06-03T01:36:14.483Z,14.60
2017-06-03T01:38:40.688Z,15.63
2017-06-03T01:41:06.928Z,14.20
2017-06-03T01:43:33.181Z,14.90
2017-06-03T01:45:59.399Z,17.20
2017-06-03T01:48:25.642Z,14.93
2017-06-03T01:50:51.860Z,16.40
2017-06-03T01:53:18.092Z,14.47
2017-06-03T01:55:44.292Z,14.83
2017-06-03T01:58:10.504Z,15.60
2017-06-03T02:00:37.461Z,15.60
2017-06-03T02:03:03.683Z,17.23
2017-06-03T02:05:29.893Z,13.70
2017-06-03T02:07:56.117Z,14.67
2017-06-03T02:10:23.107Z,15.03
2017-06-03T02:12:49.350Z,14.13
2017-06-03T02:15:15.575Z,14.47
2017-06-03T02:17:41.799Z,13.23
2017-06-03T02:20:08.038Z,14.33
2017-06-03T02:22:34.269Z,16.03
2017-06-03T02:25:00.497Z,14.47
2017-06-03T02:27:26.709Z,14.90
2017-06-03T02:29:52.946Z,16.87
2017-06-03T02:32:19.152Z,13.60
2017-06-03T02:34:45.388Z,15.10
2017-06-03T02:37:11.619Z,14.50
2017-06-03T02:39:37.863Z,13.93
2017-06-03T02:42:04.101Z,14.70
2017-06-03T02:44:30.344Z,14.63
2017-06-03T02:46:56.576Z,17.10
2017-06-03T02:49:22.810Z,13.73
2017-06-03T02:51:49.188Z,15.13
2017-06-03T02:54:15.400Z,14.00
2017-06-03T02:56:41.641Z,17.90
2017-06-03T02:59:07.889Z,13.90
2017-06-03T03:01:34.158Z,13.57
2017-06-03T03:04:00.400Z,15.70
2017-06-03T03:06:27.385Z,14.07
2017-06-03T03:08:53.605Z,14.23
2017-06-03T03:11:19.870Z,14.37
2017-06-03T03:13:46.127Z,13.40
2017-06-03T03:16:13.106Z,14.77
2017-06-03T03:18:39.330Z,15.20
2017-06-03T03:21:05.594Z,13.83
2017-06-03T03:23:31.809Z,17.23
2017-06-03T03:25:58.028Z,14.33
2017-06-03T03:28:24.296Z,13.53
2017-06-03T03:30:50.517Z,14.33
2017-06-03T03:33:16.752Z,18.00
2017-06-03T03:35:42.965Z,13.57
2017-06-03T03:38:09.201Z,13.60
2017-06-03T03:40:35.448Z,13.77
2017-06-03T03:43:01.698Z,14.00
2017-06-03T03:45:28.658Z,14.70
2017-06-03T03:47:54.901Z,13.83
2017-06-03T03:50:21.114Z,12.87
2017-06-03T03:52:47.373Z,14.00
2017-06-03T03:55:14.362Z,13.50
2017-06-03T03:57:40.606Z,13.00
2017-06-03T04:00:06.827Z,12.03
2017-06-03T04:02:33.083Z,12.57
2017-06-03T04:04:59.299Z,13.63
2017-06-03T04:07:25.536Z,13.00
2017-06-03T04:09:51.850Z,13.00
2017-06-03T04:12:18.084Z,14.70
2017-06-03T04:14:44.308Z,13.13
2017-06-03T04:17:10.517Z,11.90
2017-06-03T04:19:36.735Z,14.30
2017-06-03T04:22:02.936Z,12.83
2017-06-03T04:24:29.905Z,12.50
2017-06-03T04:26:56.101Z,12.73
2017-06-03T04:29:23.056Z,13.60
2017-06-03T04:31:49.265Z,14.10
2017-06-03T04:34:16.255Z,14.47
2017-06-03T04:36:42.461Z,12.90
2017-06-03T04:39:08.657Z,13.30
2017-06-03T04:41:34.876Z,13.20
2017-06-03T04:44:01.082Z,12.57
2017-06-03T04:46:27.302Z,12.90
2017-06-03T04:48:53.499Z,11.70
2017-06-03T04:51:20.457Z,11.83
2017-06-03T04:53:46.654Z,12.43
2017-06-03T04:56:13.625Z,12.13
2017-06-03T04:58:39.826Z,12.33
2017-06-03T05:01:06.047Z,11.60
2017-06-03T05:03:32.253Z,12.07
2017-06-03T05:05:58.473Z,12.50
2017-06-03T05:08:24.669Z,11.70
2017-06-03T05:10:50.927Z,11.80
2017-06-03T05:13:17.141Z,13.27
2017-06-03T05:15:43.360Z,11.80
2017-06-03T05:18:09.599Z,12.00
2017-06-03T05:20:35.822Z,12.73
2017-06-03T05:23:02.048Z,11.53
2017-06-03T05:25:28.263Z,11.67
2017-06-03T05:27:54.499Z,11.30
2017-06-03T05:30:20.719Z,11.47
2017-06-03T05:32:46.953Z,11.20
2017-06-03T05:35:13.204Z,11.57
2017-06-03T05:37:39.460Z,12.03
2017-06-03T05:40:05.705Z,11.87
2017-06-03T05:42:31.998Z,9.87
2017-06-03T05:44:58.238Z,11.20
2017-06-03T05:47:24.453Z,11.03
2017-06-03T05:49:50.700Z,10.60
2017-06-03T05:52:16.907Z,11.27
2017-06-03T05:54:43.176Z,11.10
2017-06-03T05:57:09.385Z,14.13
2017-06-03T05:59:35.622Z,11.63
2017-06-03T06:02:01.847Z,11.87
2017-06-03T06:04:28.109Z,11.73
2017-06-03T06:06:54.328Z,11.23
2017-06-03T06:09:21.280Z,11.33
2017-06-03T06:11:48.312Z,11.20
2017-06-03T06:14:15.272Z,10.30
2017-06-03T06:16:42.252Z,10.37
2017-06-03T06:19:08.465Z,10.40
2017-06-03T06:21:34.724Z,11.93
2017-06-03T06:24:00.945Z,10.13
2017-06-03T06:26:27.184Z,10.63
2017-06-03T06:28:53.397Z,11.30
2017-06-03T06:31:19.639Z,10.73
2017-06-03T06:33:45.862Z,11.53
2017-06-03T06:36:12.077Z,11.77
2017-06-03T06:38:38.327Z,10.23
2017-06-03T06:41:04.539Z,10.43
2017-06-03T06:43:31.521Z,10.50
2017-06-03T06:46:04.635Z,12.20
2017-06-03T06:48:30.865Z,11.20
2017-06-03T06:50:57.077Z,10.90
2017-06-03T06:53:23.312Z,10.63
2017-06-03T06:55:49.538Z,11.67
2017-06-03T06:58:15.783Z,10.87
2017-06-03T07:00:41.988Z,11.00
2017-06-03T07:03:08.219Z,12.47
2017-06-03T07:05:34.452Z,14.27
2017-06-03T07:08:00.676Z,10.23
2017-06-03T07:10:26.923Z,10.73
2017-06-03T07:12:53.203Z,10.37
2017-06-03T07:15:19.436Z,9.37
2017-06-03T07:17:45.653Z,9.50
2017-06-03T07:20:12.632Z,10.20
2017-06-03T07:22:45.837Z,9.80
2017-06-03T07:25:12.077Z,9.90
2017-06-03T07:27:38.293Z,10.17
2017-06-03T07:30:04.514Z,12.90
2017-06-03T07:32:30.759Z,10.80
2017-06-03T07:34:56.979Z,9.53
2017-06-03T07:37:23.206Z,9.00
2017-06-03T07:39:49.413Z,9.17
2017-06-03T07:42:15.653Z,10.33
2017-06-03T07:44:41.879Z,8.20
2017-06-03T07:47:08.133Z,9.77
2017-06-03T07:49:34.344Z,9.13
2017-06-03T07:52:00.570Z,10.10
2017-06-03T07:54:26.799Z,9.57
2017-06-03T07:56:53.012Z,8.30
2017-06-03T07:59:19.247Z,8.50
2017-06-03T08:01:45.469Z,8.47
2017-06-03T08:04:11.702Z,9.07
2017-06-03T08:06:37.926Z,10.27
2017-06-03T08:09:04.204Z,8.70
2017-06-03T08:11:30.425Z,10.20
2017-06-03T08:13:56.653Z,8.77
2017-06-03T08:16:22.851Z,8.87
2017-06-03T08:18:49.070Z,9.40
2017-06-03T08:21:15.298Z,9.27
2017-06-03T08:23:41.503Z,8.67
2017-06-03T08:26:07.728Z,9.43
2017-06-03T08:28:33.929Z,9.37
2017-06-03T08:31:00.154Z,8.57
2017-06-03T08:33:26.361Z,7.40
2017-06-03T08:35:52.578Z,7.87
2017-06-03T08:38:18.790Z,8.53
2017-06-03T08:40:45.021Z,7.97
2017-06-03T08:43:11.214Z,8.50
2017-06-03T08:45:38.199Z,7.53
2017-06-03T08:48:04.407Z,8.13
2017-06-03T08:50:30.615Z,8.03
2017-06-03T08:52:57.570Z,8.40
2017-06-03T08:55:24.525Z,7.70
2017-06-03T08:57:50.749Z,8.03
2017-06-03T09:00:16.963Z,8.63
2017-06-03T09:02:43.922Z,7.90
2017-06-03T09:05:10.130Z,7.47
2017-06-03T09:07:37.123Z,7.83
2017-06-03T09:10:03.392Z,7.77
2017-06-03T09:12:29.653Z,6.63
2017-06-03T09:14:55.862Z,7.50
2017-06-03T09:17:22.854Z,7.93
2017-06-03T09:19:49.083Z,7.37
2017-06-03T09:22:15.349Z,7.47
2017-06-03T09:24:41.570Z,9.20
2017-06-03T09:27:07.794Z,7.63
2017-06-03T09:29:34.036Z,8.03
2017-06-03T09:32:00.256Z,9.53
2017-06-03T09:34:26.491Z,7.23
2017-06-03T09:36:52.705Z,8.37
2017-06-03T09:39:18.934Z,13.77
2017-06-03T09:41:45.157Z,7.93
2017-06-03T09:44:11.388Z,6.20
2017-06-03T09:46:37.604Z,6.90
2017-06-03T09:49:03.847Z,8.70
2017-06-03T09:51:30.062Z,7.80
2017-06-03T09:53:56.319Z,10.30
2017-06-03T09:56:22.531Z,10.07
2017-06-03T09:58:48.732Z,10.60
2017-06-03T10:01:14.982Z,8.50
2017-06-03T10:03:41.200Z,9.70
2017-06-03T10:06:07.451Z,10.77
2017-06-03T10:08:40.582Z,7.30
2017-06-03T10:11:06.841Z,7.10
2017-06-03T10:13:33.062Z,7.97
2017-06-03T10:15:59.293Z,9.77
2017-06-03T10:18:25.513Z,6.57
2017-06-03T10:20:51.748Z,6.00
2017-06-03T10:23:17.948Z,6.60
2017-06-03T10:25:44.167Z,5.40
2017-06-03T10:28:11.119Z,5.40
2017-06-03T10:30:38.068Z,6.63
2017-06-03T10:33:04.292Z,6.10
2017-06-03T10:35:31.233Z,7.37
2017-06-03T10:37:58.197Z,6.00
2017-06-03T10:40:24.391Z,6.07
2017-06-03T10:42:50.620Z,6.93
2017-06-03T10:45:17.559Z,7.80
2017-06-03T10:47:43.773Z,5.10
2017-06-03T10:50:09.978Z,6.53
2017-06-03T10:52:36.209Z,7.00
2017-06-03T10:55:02.411Z,7.37
2017-06-03T10:57:28.628Z,6.63
2017-06-03T10:59:54.828Z,14.40
2017-06-03T11:02:21.039Z,23.30
2017-06-03T11:04:47.267Z,11.30
2017-06-03T11:07:13.470Z,6.07
2017-06-03T11:09:39.694Z,5.80
2017-06-03T11:12:05.917Z,6.47
2017-06-03T11:14:32.155Z,6.13
2017-06-03T11:16:58.370Z,9.90
2017-06-03T11:19:24.597Z,7.27
2017-06-03T11:21:50.795Z,6.60
2017-06-03T11:24:17.764Z,6.70
2017-06-03T11:26:43.968Z,7.30
2017-06-03T11:29:10.954Z,6.97
2017-06-03T11:31:37.154Z,9.40
2017-06-03T11:34:03.356Z,7.60
2017-06-03T11:36:29.572Z,7.10
2017-06-03T11:38:55.783Z,6.07
2017-06-03T11:41:22.008Z,5.13
2017-06-03T11:43:48.219Z,6.30
2017-06-03T11:46:14.429Z,6.40
2017-06-03T11:48:40.638Z,5.97
2017-06-03T11:51:07.620Z,6.10
2017-06-03T11:53:33.829Z,5.60
2017-06-03T11:56:00.070Z,5.70
2017-06-03T11:58:26.270Z,5.70
2017-06-03T12:00:53.243Z,6.30
2017-06-03T12:03:19.466Z,6.73
2017-06-03T12:05:45.727Z,7.10
2017-06-03T12:08:11.930Z,6.40
2017-06-03T12:10:38.188Z,5.63
2017-06-03T12:13:04.406Z,6.70
2017-06-03T12:15:30.626Z,6.67
2017-06-03T12:17:56.862Z,7.07
2017-06-03T12:20:23.085Z,5.90
2017-06-03T12:22:49.319Z,6.40
2017-06-03T12:25:15.549Z,5.93
2017-06-03T12:27:41.791Z,6.60
2017-06-03T12:30:08.008Z,6.10
2017-06-03T12:32:34.247Z,6.40
2017-06-03T12:35:00.474Z,6.73
2017-06-03T12:37:26.719Z,5.93
2017-06-03T12:39:52.936Z,6.33
2017-06-03T12:42:19.174Z,6.60
2017-06-03T12:44:45.393Z,6.00
2017-06-03T12:47:11.641Z,7.67
2017-06-03T12:49:38.594Z,6.03
2017-06-03T12:52:04.858Z,6.47
2017-06-03T12:54:31.087Z,6.43
2017-06-03T12:56:57.313Z,6.20
2017-06-03T12:59:23.553Z,6.70
2017-06-03T13:01:49.785Z,6.20
2017-06-03T13:04:16.029Z,6.10
2017-06-03T13:06:42.239Z,6.60
2017-06-03T13:09:08.487Z,6.37
2017-06-03T13:11:34.734Z,8.57
2017-06-03T13:14:00.949Z,6.97
2017-06-03T13:16:27.174Z,6.50
2017-06-03T13:18:53.415Z,6.77
2017-06-03T13:21:19.616Z,7.60
2017-06-03T13:23:45.861Z,8.50
2017-06-03T13:26:12.067Z,7.60
2017-06-03T13:28:38.255Z,7.33
2017-06-03T13:31:04.464Z,7.23
2017-06-03T13:33:31.417Z,6.63
2017-06-03T13:35:58.381Z,8.20
2017-06-03T13:38:24.582Z,6.97
2017-06-03T13:40:51.544Z,7.00
2017-06-03T13:43:18.499Z,6.87
2017-06-03T13:45:44.732Z,6.37
2017-06-03T13:48:10.938Z,6.27
2017-06-03T13:50:37.909Z,6.23
2017-06-03T13:53:04.112Z,7.37
2017-06-03T13:55:31.081Z,6.93
2017-06-03T13:57:57.278Z,6.93
2017-06-03T14:00:24.241Z,7.20
2017-06-03T14:02:50.445Z,6.70
2017-06-03T14:05:16.651Z,7.27
2017-06-03T14:07:42.873Z,7.30
2017-06-03T14:10:09.092Z,7.20
2017-06-03T14:12:35.340Z,8.40
2017-06-03T14:15:01.551Z,7.60
2017-06-03T14:17:27.787Z,8.73
2017-06-03T14:19:54.001Z,9.57
2017-06-03T14:22:20.245Z,8.67
2017-06-03T14:24:46.474Z,9.23
2017-06-03T14:27:12.717Z,8.23
2017-06-03T14:29:38.939Z,8.47
2017-06-03T14:32:05.168Z,8.67
2017-06-03T14:34:31.385Z,8.43
2017-06-03T14:36:57.632Z,7.67
2017-06-03T14:39:23.839Z,7.93
2017-06-03T14:41:50.055Z,7.50
2017-06-03T14:44:16.296Z,7.20
2017-06-03T14:46:42.520Z,8.40
2017-06-03T14:49:08.765Z,12.40
2017-06-03T14:51:34.981Z,6.90
2017-06-03T14:54:01.216Z,6.30
2017-06-03T14:56:27.430Z,6.60
2017-06-03T14:58:53.675Z,7.43
2017-06-03T15:01:19.891Z,7.00
2017-06-03T15:03:46.136Z,6.50
2017-06-03T15:06:12.358Z,8.17
2017-06-03T15:08:38.581Z,6.10
2017-06-03T15:11:04.829Z,7.67
2017-06-03T15:13:31.030Z,6.53
2017-06-03T15:15:57.256Z,5.67
2017-06-03T15:18:23.458Z,5.67
2017-06-03T15:20:49.673Z,6.37
2017-06-03T15:23:15.884Z,6.53
2017-06-03T15:25:42.841Z,6.33
2017-06-03T15:28:09.790Z,6.40
2017-06-03T15:30:36.024Z,6.40
2017-06-03T15:33:02.229Z,6.50
2017-06-03T15:35:29.190Z,8.17
2017-06-03T15:37:55.392Z,5.83
2017-06-03T15:40:21.618Z,6.50
2017-06-03T15:42:47.825Z,6.50
2017-06-03T15:45:14.078Z,6.07
2017-06-03T15:47:40.268Z,10.07
2017-06-03T15:50:06.478Z,9.43
2017-06-03T15:52:32.719Z,8.57
2017-06-03T15:54:58.955Z,8.53
2017-06-03T15:57:25.221Z,7.80
2017-06-03T15:59:51.424Z,8.93
2017-06-03T16:02:17.656Z,9.67
2017-06-03T16:04:43.857Z,9.80
2017-06-03T16:07:10.079Z,10.03
2017-06-03T16:09:36.281Z,9.00
2017-06-03T16:12:03.286Z,8.27
2017-06-03T16:14:29.505Z,8.97
2017-06-03T16:16:55.774Z,8.30
2017-06-03T16:19:22.725Z,8.63
2017-06-03T16:21:49.717Z,8.97
2017-06-03T16:24:15.956Z,9.10
2017-06-03T16:26:42.173Z,8.50
2017-06-03T16:29:08.417Z,10.00
2017-06-03T16:31:34.642Z,7.87
2017-06-03T16:34:00.872Z,7.77
2017-06-03T16:36:27.092Z,13.33
2017-06-03T16:38:53.330Z,8.10
2017-06-03T16:41:19.544Z,6.93
2017-06-03T16:43:45.782Z,6.07
2017-06-03T16:46:11.999Z,5.70
2017-06-03T16:48:38.223Z,5.77
2017-06-03T16:51:04.462Z,4.73
2017-06-03T16:53:30.681Z,5.73
2017-06-03T16:55:56.925Z,5.07
2017-06-03T16:58:23.142Z,4.50
2017-06-03T17:00:49.386Z,4.73
2017-06-03T17:03:15.600Z,4.27
2017-06-03T17:05:41.846Z,4.20
2017-06-03T17:08:08.064Z,5.13
2017-06-03T17:10:34.316Z,5.07
2017-06-03T17:13:00.545Z,3.90
2017-06-03T17:15:26.758Z,5.17
2017-06-03T17:17:52.999Z,5.90
2017-06-03T17:20:19.216Z,8.57
2017-06-03T17:22:45.466Z,7.50
2017-06-03T17:25:12.424Z,8.70
2017-06-03T17:27:39.402Z,6.87
2017-06-03T17:30:05.627Z,8.07
2017-06-03T17:32:31.852Z,5.87
2017-06-03T17:34:58.082Z,5.93
2017-06-03T17:37:24.354Z,5.53
2017-06-03T17:39:50.578Z,6.20
2017-06-03T17:42:16.849Z,8.27
2017-06-03T17:44:43.081Z,6.00
2017-06-03T17:47:09.330Z,5.87
2017-06-03T17:49:35.561Z,6.00
2017-06-03T17:52:01.781Z,7.23
2017-06-03T17:54:28.810Z,9.67
2017-06-03T17:56:55.030Z,6.57
2017-06-03T17:59:22.018Z,9.77
2017-06-03T18:01:48.236Z,7.60
2017-06-03T18:04:14.470Z,8.60
2017-06-03T18:06:40.680Z,9.97
2017-06-03T18:09:06.922Z,10.43
2017-06-03T18:11:33.163Z,10.80
2017-06-03T18:13:59.398Z,9.67
2017-06-03T18:16:25.619Z,9.50
2017-06-03T18:18:51.870Z,10.30
2017-06-03T18:21:18.117Z,12.77
2017-06-03T18:23:47.116Z,11.63
2017-06-03T18:26:14.146Z,11.90
2017-06-03T18:28:40.389Z,11.90
2017-06-03T18:31:07.347Z,11.50
2017-06-03T18:33:34.335Z,12.70
2017-06-03T18:36:00.546Z,9.13
2017-06-03T18:38:26.767Z,7.83
2017-06-03T18:40:53.005Z,7.43
2017-06-03T18:43:19.634Z,6.47
2017-06-03T18:45:45.874Z,6.70
2017-06-03T18:48:12.082Z,9.00
2017-06-03T18:50:38.317Z,6.87
2017-06-03T18:53:04.537Z,7.50
2017-06-03T18:55:30.766Z,7.23
2017-06-03T18:57:56.990Z,6.57
2017-06-03T19:00:23.263Z,5.90
2017-06-03T19:02:49.477Z,6.13
2017-06-03T19:05:15.716Z,6.80
2017-06-03T19:07:41.932Z,6.83
2017-06-03T19:10:08.150Z,6.40
2017-06-03T19:12:34.408Z,6.33
2017-06-03T19:15:00.623Z,6.53
2017-06-03T19:17:26.860Z,6.20
2017-06-03T19:19:53.081Z,6.10
2017-06-03T19:22:19.316Z,6.90
2017-06-03T19:24:45.531Z,7.00
2017-06-03T19:27:11.781Z,6.57
2017-06-03T19:29:37.998Z,8.63
2017-06-03T19:32:04.233Z,9.37
2017-06-03T19:34:30.443Z,7.40
2017-06-03T19:36:56.687Z,7.40
2017-06-03T19:39:22.906Z,7.20
2017-06-03T19:41:49.139Z,6.83
2017-06-03T19:44:15.522Z,7.50
2017-06-03T19:46:42.495Z,7.23
2017-06-03T19:49:08.732Z,8.17
2017-06-03T19:51:34.953Z,8.60
2017-06-03T19:54:01.191Z,8.97
2017-06-03T19:56:27.410Z,8.87
2017-06-03T19:58:53.651Z,8.80
2017-06-03T20:01:19.862Z,9.23
2017-06-03T20:03:46.102Z,8.60
2017-06-03T20:06:12.322Z,10.37
2017-06-03T20:08:38.543Z,9.33
2017-06-03T20:11:04.810Z,10.03
2017-06-03T20:13:31.014Z,9.90
2017-06-03T20:15:57.249Z,9.77
2017-06-03T20:18:23.467Z,9.63
2017-06-03T20:20:49.707Z,9.63
2017-06-03T20:23:15.927Z,10.00
2017-06-03T20:25:42.182Z,11.37
2017-06-03T20:28:08.397Z,9.70
2017-06-03T20:30:34.636Z,11.13
2017-06-03T20:33:00.860Z,10.73
2017-06-03T20:35:27.144Z,12.63
2017-06-03T20:37:53.361Z,11.23
2017-06-03T20:40:20.310Z,11.47
2017-06-03T20:42:47.294Z,10.47
2017-06-03T20:45:13.516Z,10.10
2017-06-03T20:47:39.753Z,12.17
2017-06-03T20:50:05.971Z,9.43
2017-06-03T20:52:32.203Z,9.87
2017-06-03T20:54:58.436Z,11.70
2017-06-03T20:57:24.684Z,10.60
2017-06-03T20:59:50.926Z,10.30
2017-06-03T21:02:17.160Z,10.10
2017-06-03T21:04:43.358Z,9.33
2017-06-03T21:07:09.569Z,11.20
2017-06-03T21:09:35.795Z,11.43
2017-06-03T21:12:02.013Z,11.70
2017-06-03T21:14:28.222Z,11.67
2017-06-03T21:16:54.457Z,11.07
2017-06-03T21:19:20.677Z,11.83
2017-06-03T21:21:46.876Z,11.80
2017-06-03T21:24:13.099Z,10.90
2017-06-03T21:26:39.295Z,11.70
2017-06-03T21:29:05.498Z,12.63
2017-06-03T21:31:31.721Z,11.80
2017-06-03T21:33:57.923Z,12.50
2017-06-03T21:36:24.894Z,11.33
2017-06-03T21:38:51.102Z,10.07
2017-06-03T21:41:18.073Z,11.03
2017-06-03T21:43:44.291Z,11.20
2017-06-03T21:46:10.509Z,11.13
2017-06-03T21:48:37.453Z,10.37
2017-06-03T21:51:04.418Z,11.47
2017-06-03T21:53:30.617Z,12.33
2017-06-03T21:55:57.588Z,11.20
2017-06-03T21:58:23.783Z,10.37
2017-06-03T22:00:50.723Z,11.00
2017-06-03T22:03:16.952Z,11.03
2017-06-03T22:05:43.164Z,11.00
2017-06-03T22:08:09.382Z,10.40
2017-06-03T22:10:35.587Z,10.63
2017-06-03T22:13:01.854Z,9.90
2017-06-03T22:15:28.068Z,9.63
2017-06-03T22:17:54.300Z,9.70
2017-06-03T22:20:20.522Z,8.83
2017-06-03T22:22:46.758Z,8.37
2017-06-03T22:25:12.969Z,9.63
2017-06-03T22:27:39.205Z,9.30
2017-06-03T22:30:05.434Z,8.73
2017-06-03T22:32:31.646Z,8.90
2017-06-03T22:34:57.876Z,8.30
2017-06-03T22:37:24.098Z,8.13
2017-06-03T22:39:50.346Z,8.47
2017-06-03T22:42:16.566Z,7.70
2017-06-03T22:44:42.809Z,8.07
2017-06-03T22:47:09.021Z,8.30
2017-06-03T22:49:35.259Z,8.70
2017-06-03T22:52:01.474Z,8.30
2017-06-03T22:54:27.715Z,8.70
2017-06-03T22:56:53.925Z,7.57
2017-06-03T22:59:20.151Z,7.33
2017-06-03T23:01:46.393Z,7.97
2017-06-03T23:04:12.592Z,8.43
2017-06-03T23:06:38.835Z,8.23
2017-06-03T23:09:05.056Z,8.10
2017-06-03T23:11:31.312Z,8.70
2017-06-03T23:13:57.529Z,9.50
2017-06-03T23:16:23.777Z,9.40
2017-06-03T23:18:49.982Z,9.63
2017-06-03T23:21:16.213Z,8.60
2017-06-03T23:23:42.430Z,9.27
2017-06-03T23:26:08.645Z,9.03
2017-06-03T23:28:34.891Z,8.47
2017-06-03T23:31:01.102Z,8.93
2017-06-03T23:33:27.333Z,8.83
2017-06-03T23:35:53.555Z,11.60
2017-06-03T23:38:19.798Z,9.43
2017-06-03T23:40:46.011Z,9.00
2017-06-03T23:43:12.257Z,9.53
2017-06-03T23:45:38.473Z,9.87
2017-06-03T23:48:04.688Z,9.07
2017-06-03T23:50:30.929Z,9.93
2017-06-03T23:52:57.149Z,9.87
2017-06-03T23:55:23.383Z,9.33
2017-06-03T23:57:49.603Z,8.73
